createdAt,value
2017-09-06T00:02:03.923Z,82.38
2017-09-06T00:04:32.271Z,81.97
2017-09-06T00:07:00.593Z,81.94
2017-09-06T00:09:28.911Z,81.88
2017-09-06T00:11:57.256Z,81.99
2017-09-06T00:14:25.577Z,81.74
2017-09-06T00:16:53.891Z,81.50
2017-09-06T00:19:22.236Z,82.54
2017-09-06T00:21:50.560Z,83.99
2017-09-06T00:24:19.758Z,84.41
2017-09-06T00:26:48.108Z,84.60
2017-09-06T00:29:16.430Z,85.29
2017-09-06T00:31:44.754Z,84.57
2017-09-06T00:34:13.102Z,84.48
2017-09-06T00:36:41.419Z,84.28
2017-09-06T00:39:09.749Z,84.09
2017-09-06T00:41:38.141Z,83.87
2017-09-06T00:44:06.459Z,83.17
2017-09-06T00:46:34.774Z,82.67
2017-09-06T00:49:03.122Z,82.05
2017-09-06T00:51:31.443Z,82.08
2017-09-06T00:53:59.758Z,82.27
2017-09-06T00:56:28.105Z,82.31
2017-09-06T00:58:56.474Z,82.21
2017-09-06T01:01:24.790Z,82.14
2017-09-06T01:03:53.135Z,81.99
2017-09-06T01:06:21.463Z,81.80
2017-09-06T01:08:49.782Z,81.82
2017-09-06T01:11:18.131Z,82.24
2017-09-06T01:13:46.451Z,81.75
2017-09-06T01:16:14.773Z,81.61
2017-09-06T01:18:43.123Z,81.50
2017-09-06T01:21:11.442Z,81.35
2017-09-06T01:23:39.766Z,81.22
2017-09-06T01:26:08.098Z,81.23
2017-09-06T01:28:36.418Z,81.24
2017-09-06T01:31:04.734Z,81.26
2017-09-06T01:33:33.087Z,81.19
2017-09-06T01:36:01.428Z,81.13
2017-09-06T01:38:29.749Z,81.00
2017-09-06T01:40:58.086Z,80.91
2017-09-06T01:43:26.402Z,80.94
2017-09-06T01:45:54.719Z,81.12
2017-09-06T01:48:23.062Z,81.03
2017-09-06T01:50:51.379Z,81.10
2017-09-06T01:53:19.694Z,81.05
2017-09-06T01:55:48.038Z,81.12
2017-09-06T01:58:16.358Z,80.96
2017-09-06T02:00:44.682Z,80.92
2017-09-06T02:03:13.022Z,80.65
2017-09-06T02:05:41.351Z,80.59
2017-09-06T02:08:09.669Z,80.80
2017-09-06T02:10:38.011Z,80.77
2017-09-06T02:13:06.342Z,80.50
2017-09-06T02:15:34.663Z,80.42
2017-09-06T02:18:03.012Z,80.25
2017-09-06T02:20:31.334Z,80.40
2017-09-06T02:22:59.659Z,80.31
2017-09-06T02:25:28.011Z,79.92
2017-09-06T02:27:56.340Z,80.25
2017-09-06T02:30:24.664Z,80.28
2017-09-06T02:32:53.020Z,80.09
2017-09-06T02:35:21.343Z,79.87
2017-09-06T02:37:49.680Z,79.98
2017-09-06T02:40:18.028Z,79.57
2017-09-06T02:42:46.355Z,79.63
2017-09-06T02:45:14.683Z,79.70
2017-09-06T02:47:43.028Z,79.71
2017-09-06T02:50:11.346Z,79.73
2017-09-06T02:52:39.668Z,79.52
2017-09-06T02:55:08.041Z,79.84
2017-09-06T02:57:36.394Z,79.85
2017-09-06T03:00:04.715Z,80.68
2017-09-06T03:02:33.063Z,80.31
2017-09-06T03:05:01.378Z,79.81
2017-09-06T03:07:29.693Z,79.69
2017-09-06T03:09:58.041Z,79.69
2017-09-06T03:12:26.352Z,79.56
2017-09-06T03:14:54.670Z,79.50
2017-09-06T03:17:23.017Z,80.84
2017-09-06T03:19:51.337Z,80.27
2017-09-06T03:22:19.658Z,80.94
2017-09-06T03:24:48.306Z,82.02
2017-09-06T03:27:16.622Z,82.44
2017-09-06T03:29:44.937Z,82.55
2017-09-06T03:32:13.280Z,83.21
2017-09-06T03:34:41.597Z,83.74
2017-09-06T03:37:09.916Z,83.33
2017-09-06T03:39:38.278Z,82.88
2017-09-06T03:42:06.598Z,83.10
2017-09-06T03:44:34.927Z,82.82
2017-09-06T03:47:03.273Z,83.62
2017-09-06T03:49:31.600Z,83.45
2017-09-06T03:51:59.920Z,83.81
2017-09-06T03:54:28.258Z,83.68
2017-09-06T03:56:56.579Z,83.46
2017-09-06T03:59:24.928Z,83.16
2017-09-06T04:01:53.279Z,83.04
2017-09-06T04:04:21.595Z,83.25
2017-09-06T04:06:49.911Z,83.41
2017-09-06T04:09:18.261Z,84.37
2017-09-06T04:11:47.270Z,85.26
2017-09-06T04:14:15.583Z,85.32
2017-09-06T04:16:43.934Z,84.19
2017-09-06T04:19:12.253Z,84.19
2017-09-06T04:21:40.584Z,84.46
2017-09-06T04:24:08.935Z,84.68
2017-09-06T04:26:37.260Z,86.26
2017-09-06T04:29:05.582Z,86.06
2017-09-06T04:31:33.929Z,85.45
2017-09-06T04:34:02.252Z,84.96
2017-09-06T04:36:30.572Z,84.65
2017-09-06T04:38:58.914Z,83.89
2017-09-06T04:41:27.227Z,84.24
2017-09-06T04:43:55.575Z,84.85
2017-09-06T04:46:23.918Z,85.13
2017-09-06T04:48:52.235Z,85.13
2017-09-06T04:51:20.565Z,84.47
2017-09-06T04:53:48.914Z,84.63
2017-09-06T04:56:17.235Z,83.97
2017-09-06T04:58:45.551Z,83.47
2017-09-06T05:01:13.898Z,83.04
2017-09-06T05:03:42.212Z,82.71
2017-09-06T05:06:10.526Z,82.69
2017-09-06T05:08:38.871Z,82.26
2017-09-06T05:11:07.187Z,82.08
2017-09-06T05:13:35.503Z,82.39
2017-09-06T05:16:03.855Z,82.76
2017-09-06T05:18:32.175Z,83.12
2017-09-06T05:21:00.490Z,83.38
2017-09-06T05:23:28.857Z,83.06
2017-09-06T05:25:57.204Z,83.95
2017-09-06T05:28:25.531Z,84.77
2017-09-06T05:30:53.890Z,84.71
2017-09-06T05:33:22.206Z,84.80
2017-09-06T05:35:50.531Z,85.12
2017-09-06T05:38:18.876Z,85.10
2017-09-06T05:40:47.205Z,87.14
2017-09-06T05:43:15.525Z,88.05
2017-09-06T05:45:43.880Z,88.61
2017-09-06T05:48:12.215Z,87.88
2017-09-06T05:50:40.534Z,87.68
2017-09-06T05:53:08.877Z,89.09
2017-09-06T05:55:37.190Z,89.70
2017-09-06T05:58:05.512Z,91.95
2017-09-06T06:00:33.846Z,90.87
2017-09-06T06:03:02.162Z,89.70
2017-09-06T06:05:30.474Z,88.68
2017-09-06T06:07:58.827Z,88.85
2017-09-06T06:10:27.150Z,88.17
2017-09-06T06:12:55.466Z,87.76
2017-09-06T06:15:23.825Z,87.09
2017-09-06T06:17:52.146Z,86.35
2017-09-06T06:20:20.606Z,86.24
2017-09-06T06:22:48.955Z,85.22
2017-09-06T06:25:17.274Z,85.79
2017-09-06T06:27:45.592Z,86.05
2017-09-06T06:30:13.934Z,87.04
2017-09-06T06:32:42.254Z,87.95
2017-09-06T06:35:10.580Z,87.46
2017-09-06T06:37:38.927Z,87.48
2017-09-06T06:40:07.250Z,88.22
2017-09-06T06:42:35.579Z,88.98
2017-09-06T06:45:03.927Z,88.79
2017-09-06T06:47:32.267Z,88.84
2017-09-06T06:50:00.590Z,89.71
2017-09-06T06:52:28.946Z,89.42
2017-09-06T06:54:57.269Z,89.77
2017-09-06T06:57:25.598Z,88.82
2017-09-06T06:59:53.938Z,89.16
2017-09-06T07:02:22.803Z,89.42
2017-09-06T07:04:51.119Z,88.75
2017-09-06T07:07:19.474Z,88.61
2017-09-06T07:09:47.800Z,89.86
2017-09-06T07:12:16.130Z,88.16
2017-09-06T07:14:44.480Z,88.18
2017-09-06T07:17:12.802Z,89.13
2017-09-06T07:19:41.126Z,87.90
2017-09-06T07:22:09.478Z,87.12
2017-09-06T07:24:37.794Z,87.07
2017-09-06T07:27:06.111Z,86.75
2017-09-06T07:29:34.452Z,87.18
2017-09-06T07:32:02.779Z,86.25
2017-09-06T07:34:31.098Z,86.46
2017-09-06T07:36:59.449Z,87.33
2017-09-06T07:39:27.774Z,87.46
2017-09-06T07:41:56.098Z,87.90
2017-09-06T07:44:24.447Z,88.93
2017-09-06T07:46:52.770Z,89.12
2017-09-06T07:49:21.091Z,88.52
2017-09-06T07:51:49.443Z,88.02
2017-09-06T07:54:17.782Z,88.34
2017-09-06T07:56:46.102Z,87.42
2017-09-06T07:59:14.459Z,87.40
2017-09-06T08:01:42.795Z,86.83
2017-09-06T08:04:11.118Z,85.44
2017-09-06T08:06:39.474Z,86.37
2017-09-06T08:09:07.807Z,85.83
2017-09-06T08:11:36.123Z,84.42
2017-09-06T08:14:04.464Z,85.32
2017-09-06T08:16:32.782Z,85.36
2017-09-06T08:19:01.102Z,85.20
2017-09-06T08:21:29.467Z,85.23
2017-09-06T08:23:57.794Z,85.52
2017-09-06T08:26:26.111Z,85.16
2017-09-06T08:28:54.456Z,84.73
2017-09-06T08:31:22.778Z,84.82
2017-09-06T08:33:51.111Z,85.45
2017-09-06T08:36:19.461Z,84.89
2017-09-06T08:38:47.778Z,84.52
2017-09-06T08:41:16.095Z,84.24
2017-09-06T08:43:44.445Z,84.12
2017-09-06T08:46:12.789Z,85.61
2017-09-06T08:48:41.111Z,85.15
2017-09-06T08:51:09.465Z,86.62
2017-09-06T08:53:37.788Z,86.32
2017-09-06T08:56:06.121Z,85.89
2017-09-06T08:58:34.494Z,86.43
2017-09-06T09:01:02.855Z,86.93
2017-09-06T09:03:31.175Z,87.54
2017-09-06T09:05:59.511Z,87.73
2017-09-06T09:08:27.834Z,88.33
2017-09-06T09:10:56.149Z,88.38
2017-09-06T09:13:24.491Z,86.62
2017-09-06T09:15:52.815Z,85.76
2017-09-06T09:18:21.130Z,84.74
2017-09-06T09:20:49.475Z,84.72
2017-09-06T09:23:17.803Z,83.59
2017-09-06T09:25:46.119Z,82.82
2017-09-06T09:28:14.472Z,82.87
2017-09-06T09:30:42.794Z,83.70
2017-09-06T09:33:11.120Z,82.29
2017-09-06T09:35:39.459Z,82.43
2017-09-06T09:38:07.794Z,82.05
2017-09-06T09:40:36.111Z,84.03
2017-09-06T09:43:04.463Z,82.03
2017-09-06T09:45:32.786Z,81.80
2017-09-06T09:48:01.102Z,82.58
2017-09-06T09:50:29.446Z,83.21
2017-09-06T09:52:57.764Z,83.39
2017-09-06T09:55:26.083Z,84.54
2017-09-06T09:57:54.451Z,85.09
2017-09-06T10:00:22.795Z,84.25
2017-09-06T10:02:51.107Z,85.70
2017-09-06T10:05:19.459Z,85.35
2017-09-06T10:07:47.775Z,85.38
2017-09-06T10:10:16.100Z,85.50
2017-09-06T10:12:44.438Z,82.80
2017-09-06T10:15:12.755Z,80.81
2017-09-06T10:17:41.083Z,79.95
2017-09-06T10:20:09.438Z,79.29
2017-09-06T10:22:37.772Z,78.84
2017-09-06T10:25:06.099Z,76.61
2017-09-06T10:27:34.441Z,77.10
2017-09-06T10:30:02.755Z,75.91
2017-09-06T10:32:31.080Z,76.17
2017-09-06T10:34:59.450Z,77.10
2017-09-06T10:37:27.797Z,76.62
2017-09-06T10:39:56.115Z,76.78
2017-09-06T10:42:24.466Z,76.08
2017-09-06T10:44:52.788Z,76.94
2017-09-06T10:47:21.111Z,77.75
2017-09-06T10:49:49.464Z,76.16
2017-09-06T10:52:17.792Z,76.73
2017-09-06T10:54:46.106Z,75.79
2017-09-06T10:57:15.272Z,78.35
2017-09-06T10:59:43.586Z,78.16
2017-09-06T11:02:11.922Z,74.34
2017-09-06T11:04:40.263Z,75.33
2017-09-06T11:07:08.584Z,76.95
2017-09-06T11:09:36.907Z,75.65
2017-09-06T11:12:05.261Z,75.14
2017-09-06T11:14:33.581Z,73.84
2017-09-06T11:17:01.906Z,73.82
2017-09-06T11:19:30.246Z,72.14
2017-09-06T11:21:58.580Z,72.08
2017-09-06T11:24:26.899Z,71.88
2017-09-06T11:26:55.247Z,72.16
2017-09-06T11:29:23.576Z,67.99
2017-09-06T11:31:51.899Z,70.09
2017-09-06T11:34:20.247Z,68.40
2017-09-06T11:36:48.564Z,67.21
2017-09-06T11:39:16.884Z,65.90
2017-09-06T11:41:45.230Z,66.46
2017-09-06T11:44:13.564Z,65.18
2017-09-06T11:46:41.886Z,65.55
2017-09-06T11:49:10.235Z,65.03
2017-09-06T11:51:38.559Z,65.54
2017-09-06T11:54:06.875Z,64.19
2017-09-06T11:56:35.219Z,61.96
2017-09-06T11:59:03.543Z,62.01
2017-09-06T12:01:31.868Z,61.46
2017-09-06T12:04:00.210Z,60.94
2017-09-06T12:06:28.531Z,60.33
2017-09-06T12:08:56.852Z,60.67
2017-09-06T12:11:25.213Z,61.06
2017-09-06T12:13:53.530Z,62.37
2017-09-06T12:16:21.861Z,61.76
2017-09-06T12:18:50.210Z,63.41
2017-09-06T12:21:18.530Z,63.50
2017-09-06T12:23:46.852Z,63.13
2017-09-06T12:26:15.191Z,60.16
2017-09-06T12:28:43.513Z,60.65
2017-09-06T12:31:11.830Z,61.70
2017-09-06T12:33:40.179Z,60.76
2017-09-06T12:36:08.499Z,60.39
2017-09-06T12:38:36.827Z,58.15
2017-09-06T12:41:05.187Z,57.85
2017-09-06T12:43:33.510Z,58.27
2017-09-06T12:46:01.833Z,58.40
2017-09-06T12:48:30.178Z,58.85
2017-09-06T12:50:58.494Z,59.73
2017-09-06T12:53:26.807Z,62.52
2017-09-06T12:55:55.150Z,61.74
2017-09-06T12:58:23.470Z,60.34
2017-09-06T13:00:51.798Z,60.04
2017-09-06T13:03:20.142Z,62.21
2017-09-06T13:05:48.467Z,62.27
2017-09-06T13:08:16.790Z,60.91
2017-09-06T13:10:45.427Z,60.98
2017-09-06T13:13:13.758Z,59.14
2017-09-06T13:15:42.098Z,59.75
2017-09-06T13:18:11.221Z,60.98
2017-09-06T13:20:39.543Z,60.98
2017-09-06T13:23:07.884Z,61.49
2017-09-06T13:25:36.233Z,60.98
2017-09-06T13:28:04.544Z,62.28
2017-09-06T13:30:32.869Z,62.37
2017-09-06T13:33:01.214Z,61.83
2017-09-06T13:35:29.530Z,60.26
2017-09-06T13:37:57.858Z,60.50
2017-09-06T13:40:26.198Z,60.16
2017-09-06T13:42:54.528Z,60.00
2017-09-06T13:45:22.847Z,57.75
2017-09-06T13:47:51.195Z,51.93
2017-09-06T13:50:19.511Z,48.19
2017-09-06T13:52:47.830Z,45.85
2017-09-06T13:55:16.174Z,46.14
2017-09-06T13:57:44.503Z,44.85
2017-09-06T14:00:12.825Z,45.45
2017-09-06T14:02:41.174Z,46.88
2017-09-06T14:05:09.495Z,48.84
2017-09-06T14:07:37.826Z,52.10
2017-09-06T14:10:06.171Z,52.18
2017-09-06T14:12:34.487Z,49.53
2017-09-06T14:15:02.824Z,46.38
2017-09-06T14:17:31.166Z,45.35
2017-09-06T14:19:59.484Z,47.97
2017-09-06T14:22:27.811Z,46.19
2017-09-06T14:24:56.174Z,45.57
2017-09-06T14:27:24.491Z,45.16
2017-09-06T14:29:52.814Z,43.86
2017-09-06T14:32:21.160Z,43.18
2017-09-06T14:34:49.470Z,44.90
2017-09-06T14:37:17.786Z,45.18
2017-09-06T14:39:46.123Z,44.27
2017-09-06T14:42:14.436Z,44.17
2017-09-06T14:44:42.750Z,44.53
2017-09-06T14:47:11.091Z,43.52
2017-09-06T14:49:39.403Z,45.09
2017-09-06T14:52:07.715Z,43.27
2017-09-06T14:54:36.059Z,43.94
2017-09-06T14:57:04.374Z,45.77
2017-09-06T14:59:32.696Z,45.15
2017-09-06T15:02:01.042Z,47.59
2017-09-06T15:04:29.356Z,45.83
2017-09-06T15:06:57.676Z,47.57
2017-09-06T15:09:26.056Z,46.27
2017-09-06T15:11:54.384Z,45.82
2017-09-06T15:14:22.700Z,45.63
2017-09-06T15:16:51.049Z,46.78
2017-09-06T15:19:19.365Z,47.31
2017-09-06T15:21:47.684Z,49.65
2017-09-06T15:24:16.039Z,51.11
2017-09-06T15:26:44.370Z,48.90
2017-09-06T15:29:12.687Z,49.12
2017-09-06T15:31:41.030Z,48.41
2017-09-06T15:34:09.348Z,50.89
2017-09-06T15:36:37.684Z,50.04
2017-09-06T15:39:06.029Z,51.04
2017-09-06T15:41:34.350Z,51.50
2017-09-06T15:44:02.662Z,54.53
2017-09-06T15:46:31.011Z,55.62
2017-09-06T15:48:59.330Z,56.81
2017-09-06T15:51:27.644Z,53.90
2017-09-06T15:53:56.021Z,52.45
2017-09-06T15:56:24.335Z,51.23
2017-09-06T15:58:52.658Z,49.49
2017-09-06T16:01:21.002Z,49.77
2017-09-06T16:03:49.331Z,48.33
2017-09-06T16:06:17.646Z,48.26
2017-09-06T16:08:46.006Z,46.72
2017-09-06T16:11:14.323Z,48.44
2017-09-06T16:13:42.674Z,48.18
2017-09-06T16:16:11.021Z,48.80
2017-09-06T16:18:39.350Z,48.71
2017-09-06T16:21:07.697Z,50.50
2017-09-06T16:23:36.041Z,49.53
2017-09-06T16:26:04.358Z,50.89
2017-09-06T16:28:32.679Z,51.15
2017-09-06T16:31:01.036Z,53.50
2017-09-06T16:33:29.349Z,56.03
2017-09-06T16:35:57.664Z,58.06
2017-09-06T16:38:26.015Z,57.88
2017-09-06T16:40:54.340Z,58.92
2017-09-06T16:43:22.655Z,58.84
2017-09-06T16:45:51.003Z,58.67
2017-09-06T16:48:19.347Z,59.18
2017-09-06T16:50:47.663Z,57.50
2017-09-06T16:53:16.020Z,57.80
2017-09-06T16:55:44.349Z,55.77
2017-09-06T16:58:12.670Z,54.20
2017-09-06T17:00:41.015Z,52.77
2017-09-06T17:03:09.342Z,55.04
2017-09-06T17:05:37.663Z,56.19
2017-09-06T17:08:06.024Z,57.22
2017-09-06T17:10:34.351Z,58.11
2017-09-06T17:13:02.682Z,59.62
2017-09-06T17:15:31.023Z,59.88
2017-09-06T17:17:59.346Z,60.94
2017-09-06T17:20:27.839Z,61.16
2017-09-06T17:22:56.187Z,62.40
2017-09-06T17:25:24.515Z,61.75
2017-09-06T17:27:54.989Z,62.29
2017-09-06T17:30:23.566Z,62.32
2017-09-06T17:32:51.884Z,63.40
2017-09-06T17:35:20.214Z,62.36
2017-09-06T17:37:48.567Z,63.47
2017-09-06T17:40:16.892Z,63.43
2017-09-06T17:42:45.216Z,65.16
2017-09-06T17:45:13.566Z,64.06
2017-09-06T17:47:41.883Z,63.54
2017-09-06T17:50:10.198Z,63.88
2017-09-06T17:52:38.563Z,64.50
2017-09-06T17:55:06.909Z,63.57
2017-09-06T17:57:35.235Z,63.54
2017-09-06T18:00:03.578Z,64.30
2017-09-06T18:02:31.896Z,65.32
2017-09-06T18:05:01.162Z,64.90
2017-09-06T18:07:29.759Z,65.89
2017-09-06T18:09:58.103Z,66.29
2017-09-06T18:12:26.423Z,66.52
2017-09-06T18:14:54.819Z,66.49
2017-09-06T18:17:23.142Z,68.06
2017-09-06T18:19:51.466Z,67.11
2017-09-06T18:22:19.806Z,67.42
2017-09-06T18:24:48.146Z,67.13
2017-09-06T18:27:16.461Z,67.69
2017-09-06T18:29:44.807Z,67.85
2017-09-06T18:32:13.147Z,69.72
2017-09-06T18:34:41.511Z,70.02
2017-09-06T18:37:09.851Z,70.60
2017-09-06T18:39:38.191Z,70.47
2017-09-06T18:42:06.507Z,70.22
2017-09-06T18:44:34.863Z,70.92
2017-09-06T18:47:03.186Z,70.27
2017-09-06T18:49:31.551Z,70.38
2017-09-06T18:51:59.871Z,70.74
2017-09-06T18:54:28.220Z,70.18
2017-09-06T18:56:56.564Z,70.23
2017-09-06T18:59:24.938Z,70.73
2017-09-06T19:01:53.293Z,70.73
2017-09-06T19:04:22.011Z,71.67
2017-09-06T19:06:50.330Z,71.54
2017-09-06T19:09:18.689Z,72.16
2017-09-06T19:11:47.030Z,72.45
2017-09-06T19:14:15.352Z,73.40
2017-09-06T19:16:43.709Z,73.38
2017-09-06T19:19:12.042Z,72.54
2017-09-06T19:21:40.370Z,71.78
2017-09-06T19:24:08.715Z,71.66
2017-09-06T19:26:37.116Z,71.76
2017-09-06T19:29:05.431Z,70.67
2017-09-06T19:31:33.778Z,70.55
2017-09-06T19:34:02.110Z,69.64
2017-09-06T19:36:30.438Z,69.90
2017-09-06T19:38:58.799Z,70.22
2017-09-06T19:41:27.124Z,68.77
2017-09-06T19:43:55.456Z,68.96
2017-09-06T19:46:23.810Z,68.78
2017-09-06T19:48:52.138Z,67.81
2017-09-06T19:51:20.463Z,68.30
2017-09-06T19:53:48.807Z,68.05
2017-09-06T19:56:17.140Z,67.98
2017-09-06T19:58:45.491Z,68.36
2017-09-06T20:01:13.815Z,69.53
2017-09-06T20:03:42.237Z,69.07
2017-09-06T20:06:10.586Z,68.83
2017-09-06T20:08:38.912Z,68.49
2017-09-06T20:11:07.235Z,69.43
2017-09-06T20:13:35.591Z,69.86
2017-09-06T20:16:03.928Z,70.25
2017-09-06T20:18:32.250Z,70.32
2017-09-06T20:21:00.605Z,70.67
2017-09-06T20:23:30.290Z,70.76
2017-09-06T20:25:58.610Z,71.37
2017-09-06T20:28:26.964Z,71.54
2017-09-06T20:30:55.289Z,71.88
2017-09-06T20:33:23.915Z,72.44
2017-09-06T20:35:52.263Z,72.99
2017-09-06T20:38:20.583Z,73.14
2017-09-06T20:40:48.898Z,72.54
2017-09-06T20:43:17.238Z,72.44
2017-09-06T20:45:45.579Z,72.49
2017-09-06T20:48:13.899Z,72.77
2017-09-06T20:50:42.248Z,73.14
2017-09-06T20:53:10.574Z,73.63
2017-09-06T20:55:38.890Z,74.23
2017-09-06T20:58:07.333Z,75.01
2017-09-06T21:00:35.662Z,76.23
2017-09-06T21:03:03.978Z,76.04
2017-09-06T21:05:32.407Z,76.93
2017-09-06T21:08:00.751Z,77.22
2017-09-06T21:10:29.087Z,77.15
2017-09-06T21:12:57.463Z,77.15
2017-09-06T21:15:25.806Z,77.30
2017-09-06T21:17:54.130Z,77.56
2017-09-06T21:20:22.471Z,78.21
2017-09-06T21:22:50.800Z,78.67
2017-09-06T21:25:19.135Z,79.52
2017-09-06T21:27:47.485Z,79.83
2017-09-06T21:30:15.801Z,79.62
2017-09-06T21:32:44.123Z,78.85
2017-09-06T21:35:12.510Z,79.52
2017-09-06T21:37:40.822Z,78.73
2017-09-06T21:40:09.142Z,79.13
2017-09-06T21:42:37.494Z,78.65
2017-09-06T21:45:05.816Z,79.20
2017-09-06T21:47:34.139Z,79.27
2017-09-06T21:50:02.519Z,79.34
2017-09-06T21:52:30.838Z,80.28
2017-09-06T21:54:59.158Z,79.98
2017-09-06T21:57:27.502Z,81.21
2017-09-06T21:59:55.821Z,81.18
2017-09-06T22:02:24.151Z,80.84
2017-09-06T22:04:52.498Z,80.76
2017-09-06T22:07:20.819Z,81.49
2017-09-06T22:09:49.138Z,81.21
2017-09-06T22:12:17.505Z,80.33
2017-09-06T22:14:45.826Z,79.96
2017-09-06T22:17:14.150Z,79.57
2017-09-06T22:19:42.491Z,79.74
2017-09-06T22:22:10.810Z,79.43
2017-09-06T22:24:39.132Z,79.20
2017-09-06T22:27:07.470Z,79.29
2017-09-06T22:29:35.798Z,79.09
2017-09-06T22:32:04.118Z,78.72
2017-09-06T22:34:32.480Z,79.23
2017-09-06T22:37:00.803Z,79.09
2017-09-06T22:39:29.120Z,78.46
2017-09-06T22:41:57.470Z,79.05
2017-09-06T22:44:25.794Z,79.42
2017-09-06T22:46:54.123Z,79.54
2017-09-06T22:49:22.476Z,80.21
2017-09-06T22:51:50.791Z,80.31
2017-09-06T22:54:19.107Z,80.09
2017-09-06T22:56:47.458Z,80.18
2017-09-06T22:59:15.779Z,80.53
2017-09-06T23:01:44.106Z,80.47
2017-09-06T23:04:12.463Z,80.58
2017-09-06T23:06:40.779Z,80.13
2017-09-06T23:09:09.094Z,79.75
2017-09-06T23:11:37.439Z,79.88
2017-09-06T23:14:05.754Z,79.58
2017-09-06T23:16:34.074Z,79.01
2017-09-06T23:19:02.421Z,79.36
2017-09-06T23:21:30.744Z,79.06
2017-09-06T23:23:59.063Z,78.78
2017-09-06T23:26:27.403Z,78.56
2017-09-06T23:28:55.731Z,79.02
2017-09-06T23:31:24.046Z,78.84
2017-09-06T23:33:52.401Z,78.19
2017-09-06T23:36:20.717Z,77.74
2017-09-06T23:38:49.038Z,78.80
2017-09-06T23:41:17.393Z,78.55
2017-09-06T23:43:45.709Z,79.02
2017-09-06T23:46:14.044Z,79.18
2017-09-06T23:48:42.395Z,79.69
2017-09-06T23:51:10.715Z,79.04
2017-09-06T23:53:39.034Z,79.23
2017-09-06T23:56:07.387Z,79.59
2017-09-06T23:58:35.719Z,79.19
